Time,TemperatureF,DewpointF,PressureIn,WindDirection,WindDirectionDegrees,WindSpeedMPH,WindSpeedGustMPH,Humidity,HourlyPrecipIn,Conditions,Clouds,dailyrainin,SoftwareType,DateUTC
2013-06-29 00:01:00,64.2,60.3,29.45,NE,45,0.0,0.0,87,0.00,,,0.00,WUHU21623XXSP,2013-06-29 04:01:00,
2013-06-29 00:06:00,64.2,60.3,29.45,NE,45,0.0,0.0,87,0.00,,,0.00,WUHU21623XXSP,2013-06-29 04:06:00,
2013-06-29 00:11:00,64.0,60.1,29.45,NE,45,0.0,0.0,87,0.00,,,0.00,WUHU21623XXSP,2013-06-29 04:11:00,
2013-06-29 00:16:00,64.0,60.1,29.45,NE,45,0.0,0.0,87,0.00,,,0.00,WUHU21623XXSP,2013-06-29 04:16:00,
2013-06-29 00:21:00,64.0,60.1,29.45,NE,45,0.0,0.0,87,0.00,,,0.00,WUHU21623XXSP,2013-06-29 04:21:00,
2013-06-29 00:26:00,63.7,59.8,29.45,NE,45,0.0,0.0,87,0.00,,,0.00,WUHU21623XXSP,2013-06-29 04:26:00,
2013-06-29 00:31:00,63.7,60.1,29.45,NE,45,0.0,0.0,88,0.00,,,0.00,WUHU21623XXSP,2013-06-29 04:31:00,
2013-06-29 00:36:00,63.7,60.1,29.44,NE,45,0.0,0.0,88,0.00,,,0.00,WUHU21623XXSP,2013-06-29 04:36:00,
2013-06-29 00:41:00,63.5,59.9,29.44,NE,45,0.0,0.0,88,0.00,,,0.00,WUHU21623XXSP,2013-06-29 04:41:00,
2013-06-29 00:46:00,63.3,59.8,29.44,NE,45,0.0,0.0,88,0.00,,,0.00,WUHU21623XXSP,2013-06-29 04:46:00,
2013-06-29 00:51:00,63.3,59.8,29.44,NE,45,0.0,0.0,88,0.00,,,0.00,WUHU21623XXSP,2013-06-29 04:51:00,
2013-06-29 00:56:00,63.1,59.6,29.44,NE,45,0.0,0.0,88,0.00,,,0.00,WUHU21623XXSP,2013-06-29 04:56:00,
2013-06-29 01:01:00,63.1,59.6,29.44,NE,45,0.0,0.0,88,0.00,,,0.00,WUHU21623XXSP,2013-06-29 05:01:00,
2013-06-29 01:06:00,63.0,59.4,29.44,NE,45,0.0,0.0,88,0.00,,,0.00,WUHU21623XXSP,2013-06-29 05:06:00,
2013-06-29 01:11:00,62.8,59.2,29.43,NE,45,0.0,0.0,88,0.00,,,0.00,WUHU21623XXSP,2013-06-29 05:11:00,
2013-06-29 01:16:00,62.8,59.2,29.43,NE,45,0.0,0.0,88,0.00,,,0.00,WUHU21623XXSP,2013-06-29 05:16:00,
2013-06-29 01:21:00,62.6,59.0,29.43,NE,45,0.0,0.0,88,0.00,,,0.00,WUHU21623XXSP,2013-06-29 05:21:00,
2013-06-29 01:26:00,62.4,58.9,29.43,NE,45,0.0,0.0,88,0.00,,,0.00,WUHU21623XXSP,2013-06-29 05:26:00,
2013-06-29 01:31:00,62.4,58.9,29.43,NE,45,0.0,0.0,88,0.00,,,0.00,WUHU21623XXSP,2013-06-29 05:31:00,
2013-06-29 01:36:00,62.4,58.9,29.43,NE,45,0.0,0.0,88,0.00,,,0.00,WUHU21623XXSP,2013-06-29 05:36:00,
2013-06-29 01:41:00,62.2,58.7,29.44,NE,45,0.0,0.0,88,0.00,,,0.00,WUHU21623XXSP,2013-06-29 05:41:00,
2013-06-29 01:46:00,62.2,58.7,29.44,NE,45,0.0,0.0,88,0.00,,,0.00,WUHU21623XXSP,2013-06-29 05:46:00,
2013-06-29 01:51:00,62.2,58.7,29.43,NE,45,0.0,0.0,88,0.00,,,0.00,WUHU21623XXSP,2013-06-29 05:51:00,
2013-06-29 01:56:00,62.2,58.7,29.43,NE,45,0.0,0.0,88,0.00,,,0.00,WUHU21623XXSP,2013-06-29 05:56:00,
2013-06-29 02:01:00,62.2,58.7,29.44,NE,45,0.0,0.0,88,0.00,,,0.00,WUHU21623XXSP,2013-06-29 06:01:00,
2013-06-29 02:06:00,62.2,58.7,29.44,NE,45,0.0,0.0,88,0.00,,,0.00,WUHU21623XXSP,2013-06-29 06:06:00,
2013-06-29 02:11:00,62.1,58.8,29.43,NE,45,0.0,0.0,89,0.00,,,0.00,WUHU21623XXSP,2013-06-29 06:11:00,
2013-06-29 02:16:00,62.1,58.8,29.43,NE,45,0.0,0.0,89,0.00,,,0.00,WUHU21623XXSP,2013-06-29 06:16:00,
2013-06-29 02:21:00,62.2,59.0,29.43,NE,45,0.0,0.0,89,0.00,,,0.00,WUHU21623XXSP,2013-06-29 06:21:00,
2013-06-29 02:26:00,62.1,58.8,29.43,NE,45,0.0,0.0,89,0.00,,,0.00,WUHU21623XXSP,2013-06-29 06:26:00,
2013-06-29 02:31:00,62.1,58.8,29.43,NE,45,0.0,0.0,89,0.00,,,0.00,WUHU21623XXSP,2013-06-29 06:31:00,
2013-06-29 02:36:00,62.1,58.8,29.43,NE,45,0.0,0.0,89,0.00,,,0.00,WUHU21623XXSP,2013-06-29 06:36:00,
2013-06-29 02:41:00,62.1,58.8,29.43,NE,45,0.0,0.0,89,0.00,,,0.00,WUHU21623XXSP,2013-06-29 06:41:00,
2013-06-29 02:46:00,61.9,58.7,29.43,NE,45,0.0,0.0,89,0.00,,,0.00,WUHU21623XXSP,2013-06-29 06:46:00,
2013-06-29 02:51:00,61.9,58.7,29.43,NE,45,0.0,0.0,89,0.00,,,0.00,WUHU21623XXSP,2013-06-29 06:51:00,
2013-06-29 02:56:00,61.9,58.7,29.43,NE,45,0.0,0.0,89,0.00,,,0.00,WUHU21623XXSP,2013-06-29 06:56:00,
2013-06-29 03:01:00,61.9,58.7,29.43,NE,45,0.0,0.0,89,0.00,,,0.00,WUHU21623XXSP,2013-06-29 07:01:00,
2013-06-29 03:06:00,61.7,58.5,29.43,NE,45,0.0,0.0,89,0.00,,,0.00,WUHU21623XXSP,2013-06-29 07:06:00,
2013-06-29 03:15:00,61.7,58.5,29.42,NE,45,0.0,0.0,89,0.00,,,0.00,WUHU21623XXSP,2013-06-29 07:15:00,
2013-06-29 03:20:00,61.7,58.5,29.43,NE,45,0.0,0.0,89,0.00,,,0.00,WUHU21623XXSP,2013-06-29 07:20:00,
2013-06-29 03:25:00,61.7,58.5,29.42,NE,45,0.0,0.0,89,0.00,,,0.00,WUHU21623XXSP,2013-06-29 07:25:00,
2013-06-29 03:30:00,61.9,59.0,29.42,NE,45,0.0,0.0,90,0.00,,,0.00,WUHU21623XXSP,2013-06-29 07:30:00,
2013-06-29 03:40:00,61.9,58.9,29.42,NE,45,0.0,0.0,90,0.00,,,0.00,WUHU21623XXSP,2013-06-29 07:40:00,
2013-06-29 04:22:00,62.2,59.4,29.42,NNE,22,0.0,0.0,90,0.00,,,0.00,WUHU21623XXSP,2013-06-29 08:22:00,
2013-06-29 04:27:00,62.2,59.4,29.42,NNE,22,0.0,0.0,90,0.00,,,0.00,WUHU21623XXSP,2013-06-29 08:27:00,
2013-06-29 04:32:00,62.2,59.4,29.43,NNE,22,0.0,0.0,90,0.00,,,0.00,WUHU21623XXSP,2013-06-29 08:32:00,
2013-06-29 04:37:00,62.2,59.4,29.43,NNE,22,0.0,0.0,90,0.00,,,0.00,WUHU21623XXSP,2013-06-29 08:37:00,
2013-06-29 04:42:00,62.2,59.4,29.43,NNE,22,0.0,0.0,90,0.00,,,0.00,WUHU21623XXSP,2013-06-29 08:42:00,
2013-06-29 04:47:00,62.2,59.4,29.43,NNE,22,0.0,0.0,90,0.00,,,0.00,WUHU21623XXSP,2013-06-29 08:47:00,
2013-06-29 04:52:00,62.2,59.4,29.43,NNE,22,0.0,0.0,90,0.00,,,0.00,WUHU21623XXSP,2013-06-29 08:52:00,
2013-06-29 04:57:00,62.2,59.4,29.42,NNE,22,0.0,0.0,90,0.00,,,0.00,WUHU21623XXSP,2013-06-29 08:57:00,
2013-06-29 05:02:00,62.4,59.5,29.43,NNE,22,0.0,0.0,90,0.00,,,0.00,WUHU21623XXSP,2013-06-29 09:02:00,
2013-06-29 05:07:00,62.2,59.4,29.43,NNE,22,0.0,0.0,90,0.00,,,0.00,WUHU21623XXSP,2013-06-29 09:07:00,
2013-06-29 05:12:00,62.4,59.5,29.43,NNE,22,0.0,0.0,90,0.00,,,0.00,WUHU21623XXSP,2013-06-29 09:12:00,
2013-06-29 05:17:00,62.4,59.5,29.43,NNE,22,0.0,0.0,90,0.00,,,0.00,WUHU21623XXSP,2013-06-29 09:17:00,
2013-06-29 05:22:00,62.4,59.5,29.43,NNE,22,0.0,0.0,90,0.00,,,0.00,WUHU21623XXSP,2013-06-29 09:22:00,
2013-06-29 05:27:00,62.4,59.5,29.43,NNE,22,0.0,0.0,90,0.00,,,0.00,WUHU21623XXSP,2013-06-29 09:27:00,
2013-06-29 05:32:00,62.4,59.5,29.43,NNE,22,0.0,0.0,90,0.00,,,0.00,WUHU21623XXSP,2013-06-29 09:32:00,
2013-06-29 05:37:00,62.4,59.5,29.44,NNE,22,0.0,0.0,90,0.00,,,0.00,WUHU21623XXSP,2013-06-29 09:37:00,
2013-06-29 05:42:00,62.4,59.5,29.44,SSW,202,0.0,0.0,90,0.00,,,0.00,WUHU21623XXSP,2013-06-29 09:42:00,
2013-06-29 05:47:00,62.4,59.5,29.44,SSW,202,0.0,0.0,90,0.00,,,0.00,WUHU21623XXSP,2013-06-29 09:47:00,
2013-06-29 05:52:00,62.4,59.5,29.44,SSW,202,0.0,0.0,90,0.00,,,0.00,WUHU21623XXSP,2013-06-29 09:52:00,
2013-06-29 05:57:00,62.4,59.5,29.44,SSW,202,0.0,0.0,90,0.00,,,0.00,WUHU21623XXSP,2013-06-29 09:57:00,
2013-06-29 06:02:00,62.4,59.5,29.44,SSW,202,0.0,0.0,90,0.00,,,0.00,WUHU21623XXSP,2013-06-29 10:02:00,
2013-06-29 06:07:00,62.4,59.5,29.44,SSW,202,0.0,0.0,90,0.00,,,0.00,WUHU21623XXSP,2013-06-29 10:07:00,
2013-06-29 06:12:00,62.4,59.5,29.44,SSW,202,0.0,0.0,90,0.00,,,0.00,WUHU21623XXSP,2013-06-29 10:12:00,
2013-06-29 06:17:00,62.4,59.5,29.44,SSW,202,0.0,0.0,90,0.00,,,0.00,WUHU21623XXSP,2013-06-29 10:17:00,
2013-06-29 06:22:00,62.4,59.5,29.45,SSW,202,0.0,0.0,90,0.00,,,0.00,WUHU21623XXSP,2013-06-29 10:22:00,
2013-06-29 06:27:00,62.4,59.5,29.45,SSW,202,0.0,0.0,90,0.00,,,0.00,WUHU21623XXSP,2013-06-29 10:27:00,
2013-06-29 06:32:00,62.4,59.5,29.45,SSW,202,0.0,0.0,90,0.00,,,0.00,WUHU21623XXSP,2013-06-29 10:32:00,
2013-06-29 06:37:00,62.4,59.5,29.45,SSW,202,0.0,0.0,90,0.00,,,0.00,WUHU21623XXSP,2013-06-29 10:37:00,
2013-06-29 06:42:00,62.4,59.8,29.45,SSW,202,0.0,0.0,91,0.00,,,0.00,WUHU21623XXSP,2013-06-29 10:42:00,
2013-06-29 06:47:00,62.4,59.8,29.45,SSW,202,0.0,0.0,91,0.00,,,0.00,WUHU21623XXSP,2013-06-29 10:47:00,
2013-06-29 06:52:00,62.4,59.8,29.45,SSW,202,0.0,0.0,91,0.00,,,0.00,WUHU21623XXSP,2013-06-29 10:52:00,
2013-06-29 06:57:00,62.4,59.8,29.45,SSW,202,0.0,0.0,91,0.00,,,0.00,WUHU21623XXSP,2013-06-29 10:57:00,
2013-06-29 07:02:00,62.4,59.5,29.45,SSW,202,0.0,0.0,90,0.00,,,0.00,WUHU21623XXSP,2013-06-29 11:02:00,
2013-06-29 07:07:00,62.4,59.5,29.46,SSW,202,0.0,0.0,90,0.00,,,0.00,WUHU21623XXSP,2013-06-29 11:07:00,
2013-06-29 07:12:00,62.4,59.5,29.46,SSW,202,0.0,0.0,90,0.00,,,0.00,WUHU21623XXSP,2013-06-29 11:12:00,
2013-06-29 07:17:00,62.4,59.8,29.46,SSW,202,0.0,0.0,91,0.00,,,0.00,WUHU21623XXSP,2013-06-29 11:17:00,
2013-06-29 07:22:00,62.4,59.8,29.45,SSW,202,0.0,0.0,91,0.00,,,0.00,WUHU21623XXSP,2013-06-29 11:22:00,
2013-06-29 07:27:00,62.4,59.8,29.45,SSW,202,0.0,0.0,91,0.00,,,0.00,WUHU21623XXSP,2013-06-29 11:27:00,
2013-06-29 07:32:00,62.4,59.8,29.45,SSW,202,0.0,0.0,91,0.00,,,0.00,WUHU21623XXSP,2013-06-29 11:32:00,
2013-06-29 07:39:00,62.6,60.0,29.46,SSW,202,0.0,0.0,91,0.00,,,0.00,WUHU21623XXSP,2013-06-29 11:39:00,
2013-06-29 07:44:00,62.8,60.2,29.46,SSW,202,0.0,0.0,91,0.00,,,0.00,WUHU21623XXSP,2013-06-29 11:44:00,
2013-06-29 07:49:00,62.8,60.2,29.46,SSW,202,0.0,0.0,91,0.00,,,0.00,WUHU21623XXSP,2013-06-29 11:49:00,
2013-06-29 07:54:00,62.8,60.2,29.46,SSW,202,0.0,0.0,91,0.00,,,0.00,WUHU21623XXSP,2013-06-29 11:54:00,
2013-06-29 07:59:00,63.0,60.2,29.45,SSW,202,0.0,0.0,91,0.00,,,0.00,WUHU21623XXSP,2013-06-29 11:59:00,
2013-06-29 08:04:00,63.0,60.4,29.46,SSW,202,0.0,0.0,91,0.00,,,0.00,WUHU21623XXSP,2013-06-29 12:04:00,
2013-06-29 08:09:00,63.1,60.5,29.45,SSW,202,0.0,0.0,91,0.00,,,0.00,WUHU21623XXSP,2013-06-29 12:09:00,
2013-06-29 08:14:00,63.1,60.5,29.45,SSW,202,0.0,0.0,91,0.00,,,0.00,WUHU21623XXSP,2013-06-29 12:14:00,
2013-06-29 08:19:00,63.1,60.5,29.45,SSW,202,0.0,0.0,91,0.00,,,0.00,WUHU21623XXSP,2013-06-29 12:19:00,
2013-06-29 08:24:00,63.3,60.7,29.45,SSW,202,0.0,0.0,91,0.00,,,0.00,WUHU21623XXSP,2013-06-29 12:24:00,
2013-06-29 08:29:00,63.3,60.7,29.45,SSW,202,0.0,0.0,91,0.00,,,0.00,WUHU21623XXSP,2013-06-29 12:29:00,
2013-06-29 08:34:00,63.3,60.7,29.45,SSW,202,0.0,0.0,91,0.00,,,0.00,WUHU21623XXSP,2013-06-29 12:34:00,
2013-06-29 08:39:00,63.5,60.9,29.45,SSW,202,0.0,0.0,91,0.00,,,0.00,WUHU21623XXSP,2013-06-29 12:39:00,
2013-06-29 08:44:00,63.7,61.1,29.45,SSW,202,0.0,0.0,91,0.00,,,0.00,WUHU21623XXSP,2013-06-29 12:44:00,
2013-06-29 08:49:00,63.7,61.1,29.45,SSW,202,0.0,0.9,91,0.00,,,0.00,WUHU21623XXSP,2013-06-29 12:49:00,
2013-06-29 08:54:00,63.9,61.3,29.45,SSW,202,0.0,0.9,91,0.00,,,0.00,WUHU21623XXSP,2013-06-29 12:54:00,
2013-06-29 08:59:00,64.0,61.4,29.45,SSW,202,0.0,0.0,91,0.00,,,0.00,WUHU21623XXSP,2013-06-29 12:59:00,
2013-06-29 09:04:00,64.0,61.2,29.45,WNW,292,0.0,0.0,90,0.00,,,0.00,WUHU21623XXSP,2013-06-29 13:04:00,
2013-06-29 09:09:00,64.2,61.3,29.46,WNW,292,0.0,0.0,90,0.00,,,0.00,WUHU21623XXSP,2013-06-29 13:09:00,
2013-06-29 09:14:00,64.6,61.7,29.46,WNW,292,0.0,0.0,90,0.00,,,0.00,WUHU21623XXSP,2013-06-29 13:14:00,
2013-06-29 09:19:00,64.6,61.7,29.46,WNW,292,0.0,0.0,90,0.00,,,0.00,WUHU21623XXSP,2013-06-29 13:19:00,
2013-06-29 09:24:00,64.8,61.8,29.46,NNW,337,0.0,0.0,90,0.00,,,0.00,WUHU21623XXSP,2013-06-29 13:24:00,
2013-06-29 09:29:00,64.9,62.0,29.46,NNW,337,0.0,0.0,90,0.00,,,0.00,WUHU21623XXSP,2013-06-29 13:29:00,
2013-06-29 09:34:00,65.1,62.2,29.46,NNW,337,0.0,0.0,90,0.00,,,0.00,WUHU21623XXSP,2013-06-29 13:34:00,
2013-06-29 09:39:00,65.1,62.2,29.47,NNW,337,0.0,0.0,90,0.00,,,0.00,WUHU21623XXSP,2013-06-29 13:39:00,
2013-06-29 09:44:00,65.5,62.2,29.47,NNW,337,0.0,0.0,89,0.00,,,0.00,WUHU21623XXSP,2013-06-29 13:44:00,
2013-06-29 09:49:00,65.7,62.3,29.47,NNW,337,0.0,0.0,89,0.00,,,0.00,WUHU21623XXSP,2013-06-29 13:49:00,
2013-06-29 09:54:00,65.8,62.5,29.47,NNW,337,0.0,0.0,89,0.00,,,0.00,WUHU21623XXSP,2013-06-29 13:54:00,
2013-06-29 09:59:00,66.0,62.6,29.47,NE,45,0.0,0.0,89,0.00,,,0.00,WUHU21623XXSP,2013-06-29 13:59:00,
2013-06-29 10:04:00,66.4,63.0,29.47,SW,225,0.0,1.1,89,0.00,,,0.00,WUHU21623XXSP,2013-06-29 14:04:00,
2013-06-29 10:09:00,66.7,63.0,29.47,WSW,247,0.0,1.1,88,0.00,,,0.00,WUHU21623XXSP,2013-06-29 14:09:00,
2013-06-29 10:14:00,66.9,63.2,29.47,NW,315,0.0,0.0,88,0.00,,,0.00,WUHU21623XXSP,2013-06-29 14:14:00,
2013-06-29 10:19:00,67.1,63.4,29.47,NNE,22,0.0,0.0,88,0.00,,,0.00,WUHU21623XXSP,2013-06-29 14:19:00,
2013-06-29 10:24:00,67.3,63.2,29.48,NNE,22,0.0,0.0,87,0.00,,,0.00,WUHU21623XXSP,2013-06-29 14:24:00,
2013-06-29 10:29:00,67.3,63.2,29.48,NNE,22,0.0,0.0,87,0.00,,,0.00,WUHU21623XXSP,2013-06-29 14:29:00,
2013-06-29 10:34:00,67.3,62.9,29.47,NNE,22,1.2,1.3,86,0.00,,,0.00,WUHU21623XXSP,2013-06-29 14:34:00,
2013-06-29 10:39:00,67.3,62.6,29.48,NNE,22,0.0,1.3,85,0.00,,,0.00,WUHU21623XXSP,2013-06-29 14:39:00,
2013-06-29 10:44:00,67.5,62.8,29.47,NE,45,0.0,0.7,85,0.00,,,0.00,WUHU21623XXSP,2013-06-29 14:44:00,
2013-06-29 10:49:00,67.6,63.0,29.48,NE,45,0.0,0.0,85,0.00,,,0.00,WUHU21623XXSP,2013-06-29 14:49:00,
2013-06-29 10:54:00,67.8,63.1,29.47,NE,45,0.0,0.0,85,0.00,,,0.00,WUHU21623XXSP,2013-06-29 14:54:00,
2013-06-29 10:59:00,67.8,63.1,29.48,NE,45,0.0,0.0,85,0.00,,,0.00,WUHU21623XXSP,2013-06-29 14:59:00,
2013-06-29 11:04:00,68.2,63.5,29.47,WSW,247,0.7,0.7,85,0.00,,,0.00,WUHU21623XXSP,2013-06-29 15:04:00,
2013-06-29 11:09:00,68.4,63.7,29.47,NNE,22,0.0,0.7,85,0.00,,,0.00,WUHU21623XXSP,2013-06-29 15:09:00,
2013-06-29 11:14:00,68.5,63.2,29.48,NE,45,0.0,0.0,83,0.00,,,0.00,WUHU21623XXSP,2013-06-29 15:14:00,
2013-06-29 11:20:00,68.7,63.3,29.48,NE,45,0.0,0.0,83,0.00,,,0.00,WUHU21623XXSP,2013-06-29 15:20:00,
2013-06-29 11:25:00,68.9,63.5,29.48,ENE,67,0.0,0.0,83,0.00,,,0.00,WUHU21623XXSP,2013-06-29 15:25:00,
2013-06-29 11:30:00,69.1,63.7,29.47,ESE,112,0.0,0.0,83,0.00,,,0.00,WUHU21623XXSP,2013-06-29 15:30:00,
2013-06-29 11:35:00,69.4,64.0,29.48,East,90,0.0,0.0,83,0.00,,,0.00,WUHU21623XXSP,2013-06-29 15:35:00,
2013-06-29 11:40:00,69.6,63.8,29.47,East,90,0.0,0.0,82,0.00,,,0.00,WUHU21623XXSP,2013-06-29 15:40:00,
2013-06-29 11:45:00,69.6,63.8,29.47,SE,135,0.0,0.0,82,0.00,,,0.00,WUHU21623XXSP,2013-06-29 15:45:00,
2013-06-29 11:50:00,70.0,64.2,29.47,ESE,112,0.0,0.7,82,0.00,,,0.00,WUHU21623XXSP,2013-06-29 15:50:00,
2013-06-29 11:55:00,70.3,64.5,29.47,ENE,67,0.0,0.7,82,0.00,,,0.00,WUHU21623XXSP,2013-06-29 15:55:00,
2013-06-29 12:00:00,70.5,64.4,29.47,ENE,67,0.0,0.0,81,0.00,,,0.00,WUHU21623XXSP,2013-06-29 16:00:00,
2013-06-29 12:05:00,70.5,64.0,29.47,NE,45,0.0,0.9,80,0.00,,,0.00,WUHU21623XXSP,2013-06-29 16:05:00,
2013-06-29 12:10:00,70.5,64.0,29.47,NE,45,0.0,0.9,80,0.00,,,0.00,WUHU21623XXSP,2013-06-29 16:10:00,
2013-06-29 12:15:00,70.3,63.9,29.47,WNW,292,0.0,0.0,80,0.00,,,0.00,WUHU21623XXSP,2013-06-29 16:15:00,
2013-06-29 12:20:00,70.3,64.2,29.47,NNW,337,0.0,0.0,81,0.00,,,0.00,WUHU21623XXSP,2013-06-29 16:20:00,
2013-06-29 12:25:00,70.0,63.8,29.47,NNW,337,0.0,0.9,81,0.00,,,0.00,WUHU21623XXSP,2013-06-29 16:25:00,
2013-06-29 12:30:00,70.2,64.4,29.47,West,270,0.0,0.9,82,0.00,,,0.00,WUHU21623XXSP,2013-06-29 16:30:00,
2013-06-29 12:35:00,70.3,64.2,29.47,NE,45,0.0,1.8,81,0.00,,,0.00,WUHU21623XXSP,2013-06-29 16:35:00,
2013-06-29 12:40:00,70.5,64.4,29.47,NNE,22,1.4,1.8,81,0.00,,,0.00,WUHU21623XXSP,2013-06-29 16:40:00,
2013-06-29 12:45:00,70.9,64.7,29.47,NNW,347,1.6,2.5,81,0.00,,,0.00,WUHU21623XXSP,2013-06-29 16:45:00,
2013-06-29 12:50:00,71.2,64.8,29.47,NNE,22,0.0,2.5,80,0.00,,,0.00,WUHU21623XXSP,2013-06-29 16:50:00,
2013-06-29 12:55:00,71.2,64.8,29.47,NNE,22,0.0,1.6,80,0.00,,,0.00,WUHU21623XXSP,2013-06-29 16:55:00,
2013-06-29 13:00:00,71.2,64.8,29.47,North,0,1.1,1.1,80,0.00,,,0.00,WUHU21623XXSP,2013-06-29 17:00:00,
2013-06-29 13:05:00,71.2,64.8,29.47,NNW,337,0.0,1.1,80,0.00,,,0.00,WUHU21623XXSP,2013-06-29 17:05:00,
2013-06-29 13:10:00,71.4,64.9,29.47,West,270,0.7,1.1,80,0.00,,,0.00,WUHU21623XXSP,2013-06-29 17:10:00,
2013-06-29 13:15:00,71.4,64.9,29.47,NW,315,0.0,0.7,80,0.00,,,0.00,WUHU21623XXSP,2013-06-29 17:15:00,
2013-06-29 13:20:00,71.6,64.7,29.47,NNW,337,0.0,1.8,79,0.00,,,0.00,WUHU21623XXSP,2013-06-29 17:20:00,
2013-06-29 13:25:00,71.6,64.7,29.47,North,0,1.0,2.2,79,0.00,,,0.00,WUHU21623XXSP,2013-06-29 17:25:00,
2013-06-29 13:30:00,72.0,65.1,29.47,North,0,1.1,2.2,79,0.00,,,0.00,WUHU21623XXSP,2013-06-29 17:30:00,
2013-06-29 13:35:00,72.0,65.1,29.47,NW,315,0.0,1.3,79,0.00,,,0.00,WUHU21623XXSP,2013-06-29 17:35:00,
2013-06-29 13:40:00,72.1,65.3,29.47,North,356,1.2,1.6,79,0.00,,,0.00,WUHU21623XXSP,2013-06-29 17:40:00,
2013-06-29 13:45:00,72.1,65.3,29.47,WSW,237,1.1,2.0,79,0.00,,,0.00,WUHU21623XXSP,2013-06-29 17:45:00,
2013-06-29 13:50:00,72.1,65.3,29.47,NNE,22,1.3,2.0,79,0.00,,,0.00,WUHU21623XXSP,2013-06-29 17:50:00,
2013-06-29 13:55:00,72.3,65.1,29.48,NNE,22,0.8,2.2,78,0.00,,,0.00,WUHU21623XXSP,2013-06-29 17:55:00,
2013-06-29 14:00:00,72.3,65.1,29.48,North,353,1.4,2.7,78,0.00,,,0.00,WUHU21623XXSP,2013-06-29 18:00:00,
2013-06-29 14:05:00,72.3,64.7,29.48,NNE,22,0.9,2.7,77,0.00,,,0.00,WUHU21623XXSP,2013-06-29 18:05:00,
2013-06-29 14:10:00,72.3,64.7,29.48,NNW,337,1.6,2.5,77,0.00,,,0.00,WUHU21623XXSP,2013-06-29 18:10:00,
2013-06-29 14:15:00,72.3,64.7,29.48,NNE,21,1.2,2.7,77,0.00,,,0.00,WUHU21623XXSP,2013-06-29 18:15:00,
2013-06-29 14:20:00,72.3,64.7,29.48,NW,315,1.1,2.7,77,0.00,,,0.00,WUHU21623XXSP,2013-06-29 18:20:00,
2013-06-29 14:25:00,72.3,64.7,29.48,NNW,341,1.0,3.1,77,0.00,,,0.00,WUHU21623XXSP,2013-06-29 18:25:00,
2013-06-29 14:30:00,72.3,64.3,29.48,NNE,22,2.2,3.1,76,0.00,,,0.00,WUHU21623XXSP,2013-06-29 18:30:00,
2013-06-29 14:35:00,72.3,64.3,29.48,NNE,21,1.8,3.1,76,0.00,,,0.00,WUHU21623XXSP,2013-06-29 18:35:00,
2013-06-29 14:40:00,72.3,64.3,29.48,NNE,22,0.9,2.9,76,0.00,,,0.00,WUHU21623XXSP,2013-06-29 18:40:00,
2013-06-29 14:45:00,72.5,64.5,29.48,NNE,19,1.2,4.3,76,0.00,,,0.00,WUHU21623XXSP,2013-06-29 18:45:00,
2013-06-29 14:50:00,72.3,64.3,29.48,North,9,1.4,4.3,76,0.00,,,0.00,WUHU21623XXSP,2013-06-29 18:50:00,
2013-06-29 14:55:00,72.3,64.3,29.48,NNW,340,1.6,3.4,76,0.00,,,0.00,WUHU21623XXSP,2013-06-29 18:55:00,
2013-06-29 15:00:00,72.3,64.0,29.48,NNE,20,1.3,3.4,75,0.00,,,0.00,WUHU21623XXSP,2013-06-29 19:00:00,
2013-06-29 15:05:00,72.3,64.3,29.48,NNE,22,3.1,4.7,76,0.00,,,0.00,WUHU21623XXSP,2013-06-29 19:05:00,
2013-06-29 15:10:00,72.0,63.6,29.48,North,351,1.7,4.7,75,0.00,,,0.00,WUHU21623XXSP,2013-06-29 19:10:00,
2013-06-29 15:15:00,71.8,63.8,29.48,NW,315,0.0,4.3,76,0.00,,,0.00,WUHU21623XXSP,2013-06-29 19:15:00,
2013-06-29 15:20:00,72.0,64.0,29.48,NNE,14,1.4,3.4,76,0.00,,,0.00,WUHU21623XXSP,2013-06-29 19:20:00,
2013-06-29 15:25:00,72.0,64.0,29.48,NNE,12,1.2,3.4,76,0.00,,,0.00,WUHU21623XXSP,2013-06-29 19:25:00,
2013-06-29 15:30:00,72.0,64.0,29.48,NNE,19,1.5,3.4,76,0.00,,,0.00,WUHU21623XXSP,2013-06-29 19:30:00,
2013-06-29 15:35:00,72.0,64.0,29.48,NNE,22,2.0,2.9,76,0.00,,,0.00,WUHU21623XXSP,2013-06-29 19:35:00,
2013-06-29 15:40:00,72.1,64.1,29.48,North,349,0.9,2.2,76,0.00,,,0.00,WUHU21623XXSP,2013-06-29 19:40:00,
2013-06-29 15:45:00,72.1,63.8,29.48,North,0,1.1,4.0,75,0.00,,,0.00,WUHU21623XXSP,2013-06-29 19:45:00,
2013-06-29 15:50:00,72.1,64.1,29.48,NE,45,2.0,4.0,76,0.00,,,0.00,WUHU21623XXSP,2013-06-29 19:50:00,
2013-06-29 15:55:00,72.1,64.1,29.48,NE,45,1.6,3.1,76,0.00,,,0.00,WUHU21623XXSP,2013-06-29 19:55:00,
2013-06-29 16:00:00,72.3,64.3,29.48,North,0,1.8,4.3,76,0.00,,,0.00,WUHU21623XXSP,2013-06-29 20:00:00,
2013-06-29 16:05:00,72.3,64.0,29.48,NNE,22,2.0,5.8,75,0.00,,,0.00,WUHU21623XXSP,2013-06-29 20:05:00,
2013-06-29 16:10:00,72.3,64.0,29.48,North,8,1.7,5.8,75,0.00,,,0.00,WUHU21623XXSP,2013-06-29 20:10:00,
2013-06-29 16:15:00,72.1,64.1,29.48,NNE,23,2.2,4.9,76,0.00,,,0.00,WUHU21623XXSP,2013-06-29 20:15:00,
2013-06-29 16:20:00,72.1,63.8,29.49,North,0,1.3,4.9,75,0.00,,,0.00,WUHU21623XXSP,2013-06-29 20:20:00,
2013-06-29 16:25:00,72.1,63.8,29.49,North,5,1.8,3.6,75,0.00,,,0.00,WUHU21623XXSP,2013-06-29 20:25:00,
2013-06-29 16:30:00,71.8,63.4,29.49,NNE,20,2.4,5.4,75,0.00,,,0.00,WUHU21623XXSP,2013-06-29 20:30:00,
2013-06-29 16:35:00,71.8,63.8,29.49,NE,45,3.1,5.4,76,0.00,,,0.00,WUHU21623XXSP,2013-06-29 20:35:00,
2013-06-29 16:40:00,71.4,63.8,29.49,North,0,0.0,3.4,77,0.00,,,0.00,WUHU21623XXSP,2013-06-29 20:40:00,
2013-06-29 16:45:00,71.2,63.6,29.49,North,2,2.1,2.9,77,0.00,,,0.00,WUHU21623XXSP,2013-06-29 20:45:00,
2013-06-29 16:50:00,71.2,64.0,29.49,North,349,1.1,2.9,78,0.00,,,0.00,WUHU21623XXSP,2013-06-29 20:50:00,
2013-06-29 16:55:00,71.2,64.0,29.49,NE,40,1.1,2.2,78,0.00,,,0.00,WUHU21623XXSP,2013-06-29 20:55:00,
2013-06-29 17:00:00,71.2,64.0,29.49,North,0,1.3,2.5,78,0.00,,,0.00,WUHU21623XXSP,2013-06-29 21:00:00,
2013-06-29 17:05:00,71.2,64.0,29.50,NE,40,1.2,2.5,78,0.00,,,0.00,WUHU21623XXSP,2013-06-29 21:05:00,
2013-06-29 17:10:00,71.2,63.8,29.49,NNE,22,1.1,1.8,78,0.00,,,0.00,WUHU21623XXSP,2013-06-29 21:10:00,
2013-06-29 17:15:00,70.9,64.0,29.50,NNE,17,1.4,2.5,79,0.00,,,0.00,WUHU21623XXSP,2013-06-29 21:15:00,
2013-06-29 17:20:00,70.9,64.0,29.49,NNE,26,1.5,2.5,79,0.00,,,0.00,WUHU21623XXSP,2013-06-29 21:20:00,
2013-06-29 17:25:00,70.7,63.8,29.49,NNE,22,1.0,2.2,79,0.00,,,0.00,WUHU21623XXSP,2013-06-29 21:25:00,
2013-06-29 17:30:00,70.5,64.0,29.50,NNE,22,0.0,1.3,80,0.00,,,0.00,WUHU21623XXSP,2013-06-29 21:30:00,
2013-06-29 17:35:00,70.3,63.9,29.50,NNE,22,0.7,1.1,80,0.00,,,0.00,WUHU21623XXSP,2013-06-29 21:35:00,
2013-06-29 17:40:00,70.0,64.2,29.49,NNE,22,0.9,1.1,82,0.00,,,0.00,WUHU21623XXSP,2013-06-29 21:40:00,
2013-06-29 17:45:00,69.6,63.8,29.49,NNE,22,0.0,1.1,82,0.00,,,0.00,WUHU21623XXSP,2013-06-29 21:45:00,
2013-06-29 17:50:00,69.6,64.2,29.50,NNE,22,0.0,1.3,83,0.00,,,0.00,WUHU21623XXSP,2013-06-29 21:50:00,
2013-06-29 17:55:00,69.4,64.0,29.50,NNE,22,0.0,0.9,83,0.00,,,0.00,WUHU21623XXSP,2013-06-29 21:55:00,
2013-06-29 18:00:00,69.1,64.0,29.51,NNE,22,0.0,0.0,84,0.00,,,0.00,WUHU21623XXSP,2013-06-29 22:00:00,
2013-06-29 18:05:00,69.1,64.0,29.51,NNE,22,0.0,0.7,84,0.00,,,0.00,WUHU21623XXSP,2013-06-29 22:05:00,
2013-06-29 18:10:00,68.9,63.8,29.50,NNE,22,0.0,1.1,84,0.00,,,0.00,WUHU21623XXSP,2013-06-29 22:10:00,
2013-06-29 18:15:00,68.7,63.7,29.50,NE,45,0.7,1.6,84,0.00,,,0.00,WUHU21623XXSP,2013-06-29 22:15:00,
2013-06-29 18:20:00,68.7,64.0,29.51,NNE,22,0.7,1.6,85,0.00,,,0.00,WUHU21623XXSP,2013-06-29 22:20:00,
2013-06-29 18:25:00,68.5,63.8,29.51,NNE,22,1.0,1.3,85,0.00,,,0.00,WUHU21623XXSP,2013-06-29 22:25:00,
2013-06-29 18:30:00,68.4,63.7,29.51,NNE,22,0.9,1.3,85,0.00,,,0.00,WUHU21623XXSP,2013-06-29 22:30:00,
2013-06-29 18:35:00,68.2,63.5,29.51,NNE,22,1.1,1.1,85,0.00,,,0.00,WUHU21623XXSP,2013-06-29 22:35:00,
2013-06-29 18:40:00,68.2,63.8,29.51,NNE,22,0.0,1.1,86,0.00,,,0.00,WUHU21623XXSP,2013-06-29 22:40:00,
2013-06-29 18:45:00,68.2,63.8,29.52,NE,45,0.9,1.1,86,0.00,,,0.00,WUHU21623XXSP,2013-06-29 22:45:00,
2013-06-29 18:50:00,67.8,63.8,29.52,NNE,22,2.5,2.5,87,0.02,,,0.02,WUHU21623XXSP,2013-06-29 22:50:00,
2013-06-29 18:55:00,67.8,63.8,29.51,NNE,22,0.7,2.5,87,0.02,,,0.02,WUHU21623XXSP,2013-06-29 22:55:00,
2013-06-29 19:00:00,67.6,63.6,29.52,NNE,22,0.0,2.5,87,0.02,,,0.02,WUHU21623XXSP,2013-06-29 23:00:00,
2013-06-29 19:05:00,67.6,63.6,29.52,NNE,22,1.0,1.1,87,0.02,,,0.02,WUHU21623XXSP,2013-06-29 23:05:00,
2013-06-29 19:10:00,67.3,63.6,29.52,NNE,22,0.0,1.1,88,0.05,,,0.05,WUHU21623XXSP,2013-06-29 23:10:00,
2013-06-29 19:15:00,67.1,63.4,29.52,NE,34,1.3,1.8,88,0.05,,,0.05,WUHU21623XXSP,2013-06-29 23:15:00,
2013-06-29 19:20:00,66.9,63.2,29.52,NNE,22,0.7,1.8,88,0.07,,,0.07,WUHU21623XXSP,2013-06-29 23:20:00,
2013-06-29 19:25:00,66.7,63.0,29.52,NNE,22,1.2,1.3,88,0.07,,,0.07,WUHU21623XXSP,2013-06-29 23:25:00,
2013-06-29 19:30:00,66.7,63.0,29.52,NNE,26,1.2,2.2,88,0.07,,,0.07,WUHU21623XXSP,2013-06-29 23:30:00,
2013-06-29 19:35:00,66.6,62.9,29.52,NNE,22,0.0,2.2,88,0.07,,,0.07,WUHU21623XXSP,2013-06-29 23:35:00,
2013-06-29 19:40:00,66.4,62.7,29.53,NNE,22,0.9,0.9,88,0.07,,,0.07,WUHU21623XXSP,2013-06-29 23:40:00,
2013-06-29 19:45:00,66.4,62.7,29.53,NNE,22,0.0,0.9,88,0.07,,,0.07,WUHU21623XXSP,2013-06-29 23:45:00,
2013-06-29 19:50:00,66.2,62.5,29.53,NNE,22,0.0,0.9,88,0.05,,,0.07,WUHU21623XXSP,2013-06-29 23:50:00,
2013-06-29 19:55:00,66.0,62.6,29.53,NNE,22,0.0,0.0,89,0.05,,,0.07,WUHU21623XXSP,2013-06-29 23:55:00,
2013-06-29 20:00:00,66.0,62.6,29.53,NNE,22,0.0,0.0,89,0.05,,,0.07,WUHU21623XXSP,2013-06-30 00:00:00,
2013-06-29 20:05:00,65.8,62.5,29.53,NNE,22,0.0,0.0,89,0.05,,,0.07,WUHU21623XXSP,2013-06-30 00:05:00,
2013-06-29 20:10:00,65.8,62.5,29.53,NNE,22,0.0,0.0,89,0.02,,,0.07,WUHU21623XXSP,2013-06-30 00:10:00,
2013-06-29 20:15:00,65.8,62.5,29.54,NNE,22,0.0,0.0,89,0.02,,,0.07,WUHU21623XXSP,2013-06-30 00:15:00,
2013-06-29 20:20:00,65.8,62.5,29.54,NNE,22,0.0,0.0,89,0.00,,,0.07,WUHU21623XXSP,2013-06-30 00:20:00,
2013-06-29 20:25:00,65.8,62.5,29.54,NNE,22,0.0,0.0,89,0.00,,,0.07,WUHU21623XXSP,2013-06-30 00:25:00,
2013-06-29 20:30:00,65.7,62.3,29.54,NNE,22,0.0,0.0,89,0.00,,,0.07,WUHU21623XXSP,2013-06-30 00:30:00,
2013-06-29 20:35:00,65.8,62.5,29.54,NNE,22,0.0,0.0,89,0.00,,,0.07,WUHU21623XXSP,2013-06-30 00:35:00,
2013-06-29 20:40:00,65.8,62.5,29.54,NNE,22,0.0,0.0,89,0.00,,,0.07,WUHU21623XXSP,2013-06-30 00:40:00,
2013-06-29 20:45:00,65.8,62.5,29.54,NNE,22,0.0,0.0,89,0.00,,,0.07,WUHU21623XXSP,2013-06-30 00:45:00,
2013-06-29 20:50:00,65.7,62.7,29.54,NNE,22,0.0,0.0,90,0.00,,,0.07,WUHU21623XXSP,2013-06-30 00:50:00,
2013-06-29 20:55:00,65.7,62.7,29.55,NNE,22,0.0,0.0,90,0.00,,,0.07,WUHU21623XXSP,2013-06-30 00:55:00,
2013-06-29 21:00:00,65.7,62.7,29.54,NNE,22,0.0,0.0,90,0.00,,,0.07,WUHU21623XXSP,2013-06-30 01:00:00,
2013-06-29 21:05:00,65.5,62.5,29.55,NNE,22,0.0,0.0,90,0.00,,,0.07,WUHU21623XXSP,2013-06-30 01:05:00,
2013-06-29 21:10:00,65.5,62.5,29.54,NNE,22,0.0,0.0,90,0.00,,,0.07,WUHU21623XXSP,2013-06-30 01:10:00,
2013-06-29 21:15:00,65.5,62.5,29.55,NNE,22,0.0,0.0,90,0.00,,,0.07,WUHU21623XXSP,2013-06-30 01:15:00,
2013-06-29 21:20:00,65.5,62.5,29.55,NNE,22,0.0,0.0,90,0.00,,,0.07,WUHU21623XXSP,2013-06-30 01:20:00,
2013-06-29 21:25:00,65.3,62.3,29.55,NNE,22,0.0,0.0,90,0.00,,,0.07,WUHU21623XXSP,2013-06-30 01:25:00,
2013-06-29 21:30:00,65.1,62.2,29.55,NNE,22,0.0,0.0,90,0.00,,,0.07,WUHU21623XXSP,2013-06-30 01:30:00,
2013-06-29 21:35:00,65.1,62.2,29.56,NNE,22,0.0,0.0,90,0.00,,,0.07,WUHU21623XXSP,2013-06-30 01:35:00,
2013-06-29 21:40:00,65.1,62.2,29.56,NNE,22,0.0,0.0,90,0.00,,,0.07,WUHU21623XXSP,2013-06-30 01:40:00,
2013-06-29 21:45:00,64.9,62.0,29.56,NE,45,0.0,0.0,90,0.00,,,0.07,WUHU21623XXSP,2013-06-30 01:45:00,
2013-06-29 21:50:00,64.9,62.0,29.56,NE,45,0.0,0.0,90,0.00,,,0.07,WUHU21623XXSP,2013-06-30 01:50:00,
2013-06-29 21:55:00,64.8,61.8,29.56,NE,45,0.0,0.0,90,0.00,,,0.07,WUHU21623XXSP,2013-06-30 01:55:00,
2013-06-29 22:00:00,64.8,61.8,29.56,NE,45,0.0,0.0,90,0.00,,,0.07,WUHU21623XXSP,2013-06-30 02:00:00,
2013-06-29 22:05:00,64.8,61.8,29.57,NE,45,0.0,0.0,90,0.00,,,0.07,WUHU21623XXSP,2013-06-30 02:05:00,
2013-06-29 22:10:00,64.6,61.7,29.57,NE,45,0.0,0.0,90,0.00,,,0.07,WUHU21623XXSP,2013-06-30 02:10:00,
2013-06-29 22:15:00,64.6,61.7,29.57,NE,45,0.0,0.0,90,0.00,,,0.07,WUHU21623XXSP,2013-06-30 02:15:00,
2013-06-29 22:20:00,64.4,61.5,29.57,NNE,22,0.0,0.0,90,0.00,,,0.07,WUHU21623XXSP,2013-06-30 02:20:00,
2013-06-29 22:25:00,64.2,61.3,29.57,NNE,22,0.0,0.0,90,0.00,,,0.07,WUHU21623XXSP,2013-06-30 02:25:00,
2013-06-29 22:30:00,64.2,61.3,29.57,NNE,22,0.0,0.0,90,0.00,,,0.07,WUHU21623XXSP,2013-06-30 02:30:00,
2013-06-29 22:35:00,64.2,61.3,29.58,NNE,22,0.0,0.0,90,0.00,,,0.07,WUHU21623XXSP,2013-06-30 02:35:00,
2013-06-29 22:40:00,64.2,61.6,29.57,NNE,22,0.0,0.0,91,0.00,,,0.07,WUHU21623XXSP,2013-06-30 02:40:00,
2013-06-29 22:45:00,64.2,61.6,29.58,NNE,22,0.0,0.0,91,0.00,,,0.07,WUHU21623XXSP,2013-06-30 02:45:00,
2013-06-29 22:50:00,64.2,61.6,29.58,NNE,22,0.0,0.0,91,0.00,,,0.07,WUHU21623XXSP,2013-06-30 02:50:00,
2013-06-29 22:55:00,64.2,61.6,29.58,NNE,22,0.0,0.0,91,0.00,,,0.07,WUHU21623XXSP,2013-06-30 02:55:00,
2013-06-29 23:00:00,64.2,61.6,29.58,NNE,22,0.0,0.0,91,0.00,,,0.07,WUHU21623XXSP,2013-06-30 03:00:00,
2013-06-29 23:05:00,64.2,61.6,29.58,NNE,22,0.0,0.0,91,0.00,,,0.07,WUHU21623XXSP,2013-06-30 03:05:00,
2013-06-29 23:10:00,64.2,61.6,29.58,NNE,22,0.0,0.0,91,0.00,,,0.07,WUHU21623XXSP,2013-06-30 03:10:00,
2013-06-29 23:15:00,64.2,61.6,29.58,NNE,22,0.0,0.0,91,0.00,,,0.07,WUHU21623XXSP,2013-06-30 03:15:00,
2013-06-29 23:20:00,64.2,61.6,29.58,NNE,22,0.0,0.0,91,0.00,,,0.07,WUHU21623XXSP,2013-06-30 03:20:00,
2013-06-29 23:25:00,64.2,61.6,29.58,NNE,22,0.0,0.0,91,0.00,,,0.07,WUHU21623XXSP,2013-06-30 03:25:00,
2013-06-29 23:30:00,64.0,61.4,29.58,NNE,22,0.0,0.0,91,0.00,,,0.07,WUHU21623XXSP,2013-06-30 03:30:00,
2013-06-29 23:35:00,64.0,61.4,29.58,NNE,22,0.0,0.0,91,0.00,,,0.07,WUHU21623XXSP,2013-06-30 03:35:00,
2013-06-29 23:40:00,64.0,61.4,29.59,NNE,22,0.0,0.0,91,0.00,,,0.07,WUHU21623XXSP,2013-06-30 03:40:00,
2013-06-29 23:45:00,64.0,61.4,29.59,NNE,22,0.0,0.0,91,0.00,,,0.07,WUHU21623XXSP,2013-06-30 03:45:00,
2013-06-29 23:50:00,64.0,61.4,29.59,NNE,22,0.0,0.0,91,0.00,,,0.07,WUHU21623XXSP,2013-06-30 03:50:00,
2013-06-29 23:55:00,63.9,61.3,29.59,NNE,22,0.0,0.0,91,0.00,,,0.07,WUHU21623XXSP,2013-06-30 03:55:00,